AUA663 LOWW-EPWA
Flight info
| Callsign | AUA663 |
|---|---|
| Flight time | 0h 57m |
| Altitude | 29000 |
| Route | LEDVA DCT NETIR DCT LIGDI DCT KURON T709 KOTEK M866 LOGDA |
| Aircraft | E195/M-SDE3GILORVW/S |
Departure
| Time | 2026-05-05 16:04 |
|---|---|
| Airport | Vienna International Airport (LOWW) |
Arrival
| Time | 2026-05-05 17:01 |
|---|---|
| Airport | Warsaw Chopin Airport (EPWA) |
| Time | Latitude | Longitude | Altitude | Speed | Heading |
|---|---|---|---|---|---|
| 2026-05-05 15:14 | 48.11762 | 16.56626 | 599 ft | 0 kts | 27° |
| 2026-05-05 15:17 | 48.11761 | 16.56626 | 599 ft | 0 kts | 27° |
| 2026-05-05 15:21 | 48.11761 | 16.56625 | 599 ft | 0 kts | 27° |
| 2026-05-05 15:24 | 48.11760 | 16.56625 | 599 ft | 0 kts | 27° |
| 2026-05-05 15:30 | 48.11760 | 16.56624 | 599 ft | 0 kts | 27° |
| 2026-05-05 15:31 | 48.11759 | 16.56624 | 599 ft | 0 kts | 27° |
| 2026-05-05 15:39 | 48.11758 | 16.56624 | 599 ft | 0 kts | 27° |
| 2026-05-05 15:39 | 48.11758 | 16.56623 | 599 ft | 0 kts | 27° |
| 2026-05-05 15:46 | 48.11747 | 16.56615 | 599 ft | 3 kts | 27° |
| 2026-05-05 15:46 | 48.11730 | 16.56602 | 599 ft | 3 kts | 27° |
| 2026-05-05 15:47 | 48.11714 | 16.56589 | 599 ft | 3 kts | 44° |
| 2026-05-05 15:47 | 48.11703 | 16.56566 | 599 ft | 3 kts | 81° |
| 2026-05-05 15:47 | 48.11704 | 16.56538 | 600 ft | 3 kts | 110° |
| 2026-05-05 15:47 | 48.11706 | 16.56528 | 600 ft | 0 kts | 118° |
| 2026-05-05 15:49 | 48.11706 | 16.56527 | 600 ft | 0 kts | 118° |
| 2026-05-05 15:50 | 48.11704 | 16.56532 | 600 ft | 1 kts | 118° |
| 2026-05-05 15:50 | 48.11700 | 16.56545 | 600 ft | 1 kts | 117° |
| 2026-05-05 15:50 | 48.11686 | 16.56587 | 599 ft | 6 kts | 115° |
| 2026-05-05 15:51 | 48.11665 | 16.56653 | 600 ft | 8 kts | 115° |
| 2026-05-05 15:51 | 48.11642 | 16.56726 | 601 ft | 8 kts | 115° |
| 2026-05-05 15:51 | 48.11617 | 16.56799 | 602 ft | 8 kts | 117° |
| 2026-05-05 15:51 | 48.11593 | 16.56872 | 603 ft | 8 kts | 114° |
| 2026-05-05 15:52 | 48.11558 | 16.56980 | 616 ft | 12 kts | 116° |
| 2026-05-05 15:52 | 48.11523 | 16.57088 | 609 ft | 10 kts | 114° |
| 2026-05-05 15:52 | 48.11498 | 16.57169 | 614 ft | 7 kts | 116° |
| 2026-05-05 15:52 | 48.11462 | 16.57275 | 616 ft | 15 kts | 116° |
| 2026-05-05 15:53 | 48.11442 | 16.57408 | 608 ft | 12 kts | 62° |
| 2026-05-05 15:53 | 48.11509 | 16.57475 | 616 ft | 11 kts | 26° |
| 2026-05-05 15:53 | 48.11567 | 16.57524 | 617 ft | 8 kts | 31° |
| 2026-05-05 15:53 | 48.11615 | 16.57547 | 622 ft | 9 kts | 0° |
| 2026-05-05 15:54 | 48.11705 | 16.57515 | 613 ft | 17 kts | 345° |
| 2026-05-05 15:54 | 48.11839 | 16.57458 | 615 ft | 22 kts | 345° |
| 2026-05-05 15:54 | 48.11971 | 16.57410 | 610 ft | 16 kts | 1° |
| 2026-05-05 15:54 | 48.12010 | 16.57507 | 607 ft | 11 kts | 98° |
| 2026-05-05 15:55 | 48.11996 | 16.57597 | 605 ft | 0 kts | 105° |
| 2026-05-05 15:57 | 48.11996 | 16.57596 | 605 ft | 0 kts | 105° |
| 2026-05-05 16:02 | 48.11993 | 16.57616 | 614 ft | 4 kts | 105° |
| 2026-05-05 16:02 | 48.11982 | 16.57669 | 605 ft | 6 kts | 106° |
| 2026-05-05 16:02 | 48.11970 | 16.57737 | 614 ft | 8 kts | 105° |
| 2026-05-05 16:03 | 48.11937 | 16.57831 | 611 ft | 9 kts | 149° |
| 2026-05-05 16:03 | 48.11784 | 16.57901 | 611 ft | 51 kts | 164° |
| 2026-05-05 16:03 | 48.11251 | 16.58126 | 611 ft | 107 kts | 163° |
| 2026-05-05 16:03 | 48.10372 | 16.58494 | 642 ft | 152 kts | 164° |
| 2026-05-05 16:04 | 48.09350 | 16.58972 | 1275 ft | 151 kts | 165° |
| 2026-05-05 16:04 | 48.08336 | 16.59400 | 1929 ft | 153 kts | 168° |
| 2026-05-05 16:04 | 48.07279 | 16.59855 | 2516 ft | 169 kts | 159° |
| 2026-05-05 16:04 | 48.06484 | 16.61330 | 2926 ft | 208 kts | 110° |
| 2026-05-05 16:05 | 48.06721 | 16.63595 | 3460 ft | 241 kts | 64° |
| 2026-05-05 16:05 | 48.07869 | 16.65516 | 4121 ft | 253 kts | 47° |
| 2026-05-05 16:05 | 48.09163 | 16.67328 | 4830 ft | 259 kts | 47° |
| 2026-05-05 16:05 | 48.10462 | 16.69320 | 5420 ft | 273 kts | 51° |
| 2026-05-05 16:06 | 48.11718 | 16.71508 | 6253 ft | 281 kts | 53° |
| 2026-05-05 16:06 | 48.12934 | 16.73834 | 6999 ft | 287 kts | 56° |
| 2026-05-05 16:06 | 48.14254 | 16.76107 | 7765 ft | 295 kts | 36° |
| 2026-05-05 16:06 | 48.16150 | 16.77240 | 8655 ft | 297 kts | 7° |
| 2026-05-05 16:07 | 48.18216 | 16.77456 | 9417 ft | 299 kts | 358° |
| 2026-05-05 16:07 | 48.20310 | 16.77351 | 10043 ft | 305 kts | 354° |
| 2026-05-05 16:07 | 48.22501 | 16.77052 | 10225 ft | 327 kts | 351° |
| 2026-05-05 16:07 | 48.24828 | 16.76599 | 10411 ft | 346 kts | 350° |
| 2026-05-05 16:08 | 48.27258 | 16.76031 | 10673 ft | 361 kts | 349° |
| 2026-05-05 16:08 | 48.29770 | 16.75398 | 11034 ft | 371 kts | 348° |
| 2026-05-05 16:08 | 48.32110 | 16.75073 | 11396 ft | 379 kts | 358° |
| 2026-05-05 16:08 | 48.34764 | 16.75203 | 11838 ft | 385 kts | 3° |
| 2026-05-05 16:09 | 48.37446 | 16.75585 | 12311 ft | 389 kts | 6° |
| 2026-05-05 16:09 | 48.40143 | 16.76130 | 12772 ft | 393 kts | 7° |
| 2026-05-05 16:09 | 48.42856 | 16.76786 | 13245 ft | 397 kts | 8° |
| 2026-05-05 16:09 | 48.45585 | 16.77528 | 13696 ft | 399 kts | 9° |
| 2026-05-05 16:10 | 48.48331 | 16.78215 | 14106 ft | 401 kts | 5° |
| 2026-05-05 16:10 | 48.51119 | 16.78589 | 14504 ft | 403 kts | 2° |
| 2026-05-05 16:10 | 48.53922 | 16.78789 | 14847 ft | 405 kts | 0° |
| 2026-05-05 16:10 | 48.56749 | 16.78897 | 15170 ft | 407 kts | 359° |
| 2026-05-05 16:11 | 48.59585 | 16.78946 | 15475 ft | 409 kts | 358° |
| 2026-05-05 16:11 | 48.68095 | 16.78932 | 17112 ft | 396 kts | 357° |
| 2026-05-05 16:12 | 48.70799 | 16.79331 | 17911 ft | 390 kts | 15° |
| 2026-05-05 16:12 | 48.74727 | 16.84305 | 19357 ft | 370 kts | 67° |
| 2026-05-05 16:13 | 48.74461 | 16.95180 | 21295 ft | 341 kts | 105° |
| 2026-05-05 16:13 | 48.73944 | 16.98734 | 21725 ft | 341 kts | 104° |
| 2026-05-05 16:13 | 48.73469 | 17.02217 | 22050 ft | 344 kts | 103° |
| 2026-05-05 16:14 | 48.72632 | 17.09549 | 22231 ft | 363 kts | 99° |
| 2026-05-05 16:14 | 48.71955 | 17.17323 | 22391 ft | 381 kts | 98° |
| 2026-05-05 16:15 | 48.71392 | 17.25475 | 22558 ft | 397 kts | 95° |
| 2026-05-05 16:15 | 48.72930 | 17.33423 | 22733 ft | 409 kts | 49° |
| 2026-05-05 16:16 | 48.77718 | 17.38027 | 22765 ft | 417 kts | 21° |
| 2026-05-05 16:16 | 48.83154 | 17.41458 | 22785 ft | 429 kts | 20° |
| 2026-05-05 16:17 | 48.88733 | 17.44936 | 22786 ft | 439 kts | 20° |
| 2026-05-05 16:17 | 48.91569 | 17.46737 | 22797 ft | 443 kts | 21° |
| 2026-05-05 16:18 | 48.97292 | 17.50460 | 22789 ft | 451 kts | 22° |
| 2026-05-05 16:18 | 49.00179 | 17.52388 | 22799 ft | 454 kts | 22° |
| 2026-05-05 16:18 | 49.05978 | 17.56377 | 22792 ft | 460 kts | 23° |
| 2026-05-05 16:19 | 49.08889 | 17.58435 | 22787 ft | 462 kts | 24° |
| 2026-05-05 16:19 | 49.11779 | 17.60613 | 22798 ft | 465 kts | 26° |
| 2026-05-05 16:19 | 49.17387 | 17.65629 | 22800 ft | 469 kts | 32° |
| 2026-05-05 16:20 | 49.21842 | 17.70411 | 22809 ft | 472 kts | 35° |
| 2026-05-05 16:20 | 49.27837 | 17.77829 | 22805 ft | 476 kts | 39° |
| 2026-05-05 16:21 | 49.31943 | 17.83452 | 22804 ft | 477 kts | 41° |
| 2026-05-05 16:22 | 49.39099 | 17.94088 | 22814 ft | 479 kts | 44° |
| 2026-05-05 16:22 | 49.43752 | 18.01435 | 22814 ft | 480 kts | 45° |
| 2026-05-05 16:23 | 49.48326 | 18.08905 | 22813 ft | 480 kts | 46° |
| 2026-05-05 16:23 | 49.50595 | 18.12682 | 22812 ft | 481 kts | 46° |
| 2026-05-05 16:23 | 49.55098 | 18.20290 | 22811 ft | 481 kts | 47° |
| 2026-05-05 16:24 | 49.57340 | 18.24125 | 22810 ft | 481 kts | 47° |
| 2026-05-05 16:24 | 49.59572 | 18.27967 | 22811 ft | 482 kts | 47° |
| 2026-05-05 16:24 | 49.64024 | 18.35700 | 22803 ft | 482 kts | 47° |
| 2026-05-05 16:25 | 49.66245 | 18.39582 | 22811 ft | 482 kts | 48° |
| 2026-05-05 16:25 | 49.70670 | 18.47362 | 22824 ft | 482 kts | 48° |
| 2026-05-05 16:25 | 49.72881 | 18.51272 | 22810 ft | 483 kts | 48° |
| 2026-05-05 16:26 | 49.77292 | 18.59103 | 22814 ft | 483 kts | 48° |
| 2026-05-05 16:26 | 49.81671 | 18.66922 | 22830 ft | 484 kts | 48° |
| 2026-05-05 16:27 | 49.83898 | 18.70914 | 22814 ft | 484 kts | 49° |
| 2026-05-05 16:27 | 49.86065 | 18.74806 | 22827 ft | 484 kts | 49° |
| 2026-05-05 16:27 | 49.88262 | 18.78757 | 22814 ft | 484 kts | 49° |
| 2026-05-05 16:27 | 49.90456 | 18.82711 | 22831 ft | 484 kts | 49° |
| 2026-05-05 16:28 | 49.92651 | 18.86674 | 22817 ft | 484 kts | 49° |
| 2026-05-05 16:28 | 49.94840 | 18.90636 | 22814 ft | 484 kts | 49° |
| 2026-05-05 16:28 | 49.97026 | 18.94600 | 22829 ft | 484 kts | 49° |
| 2026-05-05 16:28 | 49.99213 | 18.98573 | 22817 ft | 484 kts | 49° |
| 2026-05-05 16:29 | 50.01403 | 19.02556 | 22815 ft | 484 kts | 49° |
| 2026-05-05 16:29 | 50.03582 | 19.06527 | 22827 ft | 483 kts | 49° |
| 2026-05-05 16:29 | 50.05767 | 19.10513 | 22824 ft | 483 kts | 49° |
| 2026-05-05 16:29 | 50.07948 | 19.14496 | 22828 ft | 483 kts | 49° |
| 2026-05-05 16:30 | 50.10128 | 19.18484 | 22827 ft | 483 kts | 49° |
| 2026-05-05 16:30 | 50.12306 | 19.22473 | 22822 ft | 483 kts | 49° |
| 2026-05-05 16:30 | 50.14480 | 19.26465 | 22827 ft | 483 kts | 49° |
| 2026-05-05 16:30 | 50.16649 | 19.30456 | 22829 ft | 483 kts | 49° |
| 2026-05-05 16:31 | 50.18824 | 19.34458 | 22824 ft | 483 kts | 49° |
| 2026-05-05 16:31 | 50.20990 | 19.38455 | 22825 ft | 483 kts | 49° |
| 2026-05-05 16:31 | 50.23160 | 19.42463 | 22816 ft | 483 kts | 49° |
| 2026-05-05 16:31 | 50.25327 | 19.46479 | 22818 ft | 483 kts | 49° |
| 2026-05-05 16:32 | 50.27490 | 19.50498 | 22822 ft | 483 kts | 49° |
| 2026-05-05 16:32 | 50.29645 | 19.54442 | 22824 ft | 483 kts | 49° |
| 2026-05-05 16:32 | 50.31875 | 19.58460 | 22822 ft | 483 kts | 48° |
| 2026-05-05 16:32 | 50.34060 | 19.62372 | 22811 ft | 483 kts | 48° |
| 2026-05-05 16:33 | 50.36276 | 19.66329 | 22810 ft | 483 kts | 48° |
| 2026-05-05 16:33 | 50.38491 | 19.70282 | 22828 ft | 483 kts | 48° |
| 2026-05-05 16:33 | 50.40709 | 19.74242 | 22829 ft | 483 kts | 48° |
| 2026-05-05 16:33 | 50.42923 | 19.78201 | 22832 ft | 483 kts | 48° |
| 2026-05-05 16:34 | 50.45138 | 19.82170 | 22825 ft | 483 kts | 48° |
| 2026-05-05 16:34 | 50.47350 | 19.86144 | 22820 ft | 483 kts | 48° |
| 2026-05-05 16:34 | 50.49559 | 19.90119 | 22825 ft | 483 kts | 48° |
| 2026-05-05 16:34 | 50.51765 | 19.94097 | 22815 ft | 483 kts | 48° |
| 2026-05-05 16:35 | 50.53975 | 19.98088 | 22825 ft | 484 kts | 48° |
| 2026-05-05 16:35 | 50.56182 | 20.02083 | 22832 ft | 484 kts | 48° |
| 2026-05-05 16:35 | 50.58387 | 20.06081 | 22818 ft | 484 kts | 48° |
| 2026-05-05 16:35 | 50.60587 | 20.10089 | 22823 ft | 484 kts | 49° |
| 2026-05-05 16:36 | 50.62432 | 20.14505 | 22814 ft | 484 kts | 62° |
| 2026-05-05 16:36 | 50.63781 | 20.19366 | 22812 ft | 484 kts | 68° |
| 2026-05-05 16:36 | 50.65373 | 20.24004 | 22820 ft | 482 kts | 51° |
| 2026-05-05 16:36 | 50.67827 | 20.27558 | 22821 ft | 479 kts | 31° |
| 2026-05-05 16:37 | 50.70768 | 20.30006 | 22821 ft | 478 kts | 23° |
| 2026-05-05 16:37 | 50.73803 | 20.32130 | 22814 ft | 477 kts | 21° |
| 2026-05-05 16:37 | 50.76861 | 20.34150 | 22818 ft | 477 kts | 20° |
| 2026-05-05 16:37 | 50.79929 | 20.36143 | 22823 ft | 477 kts | 20° |
| 2026-05-05 16:38 | 50.82998 | 20.38135 | 22821 ft | 477 kts | 20° |
| 2026-05-05 16:38 | 50.86061 | 20.40137 | 22823 ft | 477 kts | 20° |
| 2026-05-05 16:38 | 50.89122 | 20.42153 | 22813 ft | 477 kts | 21° |
| 2026-05-05 16:38 | 50.92179 | 20.44187 | 22818 ft | 476 kts | 21° |
| 2026-05-05 16:39 | 50.95229 | 20.46240 | 22822 ft | 476 kts | 21° |
| 2026-05-05 16:39 | 50.98274 | 20.48307 | 22818 ft | 476 kts | 21° |
| 2026-05-05 16:39 | 51.01314 | 20.50385 | 22818 ft | 476 kts | 21° |
| 2026-05-05 16:39 | 51.04353 | 20.52476 | 22820 ft | 476 kts | 21° |
| 2026-05-05 16:40 | 51.07392 | 20.54580 | 22814 ft | 476 kts | 21° |
| 2026-05-05 16:40 | 51.10424 | 20.56688 | 22808 ft | 476 kts | 21° |
| 2026-05-05 16:40 | 51.13453 | 20.58803 | 22815 ft | 476 kts | 21° |
| 2026-05-05 16:40 | 51.16483 | 20.60924 | 22809 ft | 475 kts | 21° |
| 2026-05-05 16:41 | 51.19503 | 20.63045 | 22806 ft | 475 kts | 21° |
| 2026-05-05 16:41 | 51.22555 | 20.65194 | 22434 ft | 482 kts | 22° |
| 2026-05-05 16:41 | 51.25641 | 20.67347 | 22066 ft | 486 kts | 20° |
| 2026-05-05 16:41 | 51.28803 | 20.69334 | 21601 ft | 491 kts | 18° |
| 2026-05-05 16:42 | 51.32030 | 20.71213 | 21052 ft | 494 kts | 17° |
| 2026-05-05 16:42 | 51.35213 | 20.72990 | 20494 ft | 488 kts | 17° |
| 2026-05-05 16:42 | 51.38408 | 20.74730 | 19940 ft | 482 kts | 17° |
| 2026-05-05 16:42 | 51.41575 | 20.76429 | 19403 ft | 478 kts | 16° |
| 2026-05-05 16:43 | 51.44719 | 20.78107 | 18867 ft | 475 kts | 16° |
| 2026-05-05 16:43 | 51.47842 | 20.79773 | 18349 ft | 472 kts | 16° |
| 2026-05-05 16:43 | 51.50947 | 20.81432 | 17797 ft | 469 kts | 16° |
| 2026-05-05 16:43 | 51.54037 | 20.83088 | 17211 ft | 467 kts | 16° |
| 2026-05-05 16:44 | 51.57117 | 20.84747 | 16637 ft | 466 kts | 16° |
| 2026-05-05 16:44 | 51.60179 | 20.86404 | 16076 ft | 464 kts | 16° |
| 2026-05-05 16:44 | 51.63218 | 20.88051 | 15670 ft | 459 kts | 16° |
| 2026-05-05 16:44 | 51.66231 | 20.89681 | 15278 ft | 454 kts | 16° |
| 2026-05-05 16:45 | 51.69201 | 20.91271 | 14960 ft | 444 kts | 16° |
| 2026-05-05 16:45 | 51.72066 | 20.92796 | 14644 ft | 424 kts | 15° |
| 2026-05-05 16:45 | 51.74807 | 20.94139 | 14331 ft | 400 kts | 8° |
| 2026-05-05 16:45 | 51.77475 | 20.94119 | 14023 ft | 372 kts | 346° |
| 2026-05-05 16:46 | 51.79895 | 20.93090 | 13716 ft | 349 kts | 338° |
| 2026-05-05 16:46 | 51.82109 | 20.91788 | 13380 ft | 330 kts | 334° |
| 2026-05-05 16:46 | 51.84168 | 20.90373 | 13044 ft | 314 kts | 331° |
| 2026-05-05 16:46 | 51.86100 | 20.88894 | 12700 ft | 300 kts | 329° |
| 2026-05-05 16:47 | 51.87921 | 20.87415 | 12553 ft | 286 kts | 327° |
| 2026-05-05 16:47 | 51.89652 | 20.85979 | 12349 ft | 272 kts | 327° |
| 2026-05-05 16:47 | 51.91294 | 20.84595 | 12156 ft | 260 kts | 326° |
| 2026-05-05 16:47 | 51.92867 | 20.83268 | 11941 ft | 250 kts | 326° |
| 2026-05-05 16:48 | 51.94378 | 20.81988 | 11741 ft | 241 kts | 326° |
| 2026-05-05 16:48 | 51.95847 | 20.80738 | 11536 ft | 239 kts | 326° |
| 2026-05-05 16:48 | 51.97380 | 20.79678 | 11344 ft | 245 kts | 351° |
| 2026-05-05 16:48 | 51.99064 | 20.80123 | 11264 ft | 253 kts | 31° |
| 2026-05-05 16:49 | 52.00290 | 20.82170 | 11201 ft | 260 kts | 64° |
| 2026-05-05 16:49 | 52.01074 | 20.84884 | 11037 ft | 272 kts | 68° |
| 2026-05-05 16:49 | 52.01825 | 20.87778 | 10750 ft | 284 kts | 71° |
| 2026-05-05 16:49 | 52.02126 | 20.90932 | 10492 ft | 285 kts | 103° |
| 2026-05-05 16:50 | 52.01366 | 20.93817 | 10226 ft | 278 kts | 137° |
| 2026-05-05 16:50 | 51.99876 | 20.95801 | 9934 ft | 280 kts | 152° |
| 2026-05-05 16:50 | 51.98199 | 20.97454 | 9627 ft | 283 kts | 155° |
| 2026-05-05 16:50 | 51.96508 | 20.98963 | 9310 ft | 272 kts | 157° |
| 2026-05-05 16:51 | 51.94816 | 21.00054 | 9023 ft | 252 kts | 180° |
| 2026-05-05 16:51 | 51.93123 | 20.99914 | 8700 ft | 239 kts | 191° |
| 2026-05-05 16:51 | 51.91491 | 20.99697 | 8395 ft | 234 kts | 180° |
| 2026-05-05 16:51 | 51.89893 | 21.00020 | 8092 ft | 229 kts | 175° |
| 2026-05-05 16:52 | 51.88338 | 21.00463 | 7799 ft | 224 kts | 174° |
| 2026-05-05 16:52 | 51.86845 | 21.00929 | 7495 ft | 219 kts | 174° |
| 2026-05-05 16:52 | 51.85368 | 21.01404 | 7207 ft | 214 kts | 174° |
| 2026-05-05 16:52 | 51.83924 | 21.01887 | 6806 ft | 210 kts | 173° |
| 2026-05-05 16:53 | 51.82511 | 21.02363 | 6552 ft | 205 kts | 173° |
| 2026-05-05 16:53 | 51.81172 | 21.03120 | 6295 ft | 208 kts | 142° |
| 2026-05-05 16:53 | 51.80411 | 21.05076 | 6185 ft | 220 kts | 106° |
| 2026-05-05 16:53 | 51.80385 | 21.07654 | 5929 ft | 243 kts | 85° |
| 2026-05-05 16:54 | 51.80759 | 21.10323 | 5641 ft | 243 kts | 72° |
| 2026-05-05 16:54 | 51.81445 | 21.12775 | 5350 ft | 237 kts | 60° |
| 2026-05-05 16:54 | 51.82410 | 21.14885 | 5161 ft | 231 kts | 49° |
| 2026-05-05 16:54 | 51.83656 | 21.16711 | 4866 ft | 244 kts | 36° |
| 2026-05-05 16:55 | 51.85108 | 21.18087 | 4562 ft | 240 kts | 24° |
| 2026-05-05 16:55 | 51.86680 | 21.18902 | 4248 ft | 237 kts | 7° |
| 2026-05-05 16:55 | 51.88314 | 21.19045 | 4029 ft | 234 kts | 355° |
| 2026-05-05 16:55 | 51.89913 | 21.18733 | 3915 ft | 230 kts | 346° |
| 2026-05-05 16:56 | 51.91454 | 21.18079 | 3875 ft | 227 kts | 338° |
| 2026-05-05 16:56 | 51.92922 | 21.17162 | 3833 ft | 226 kts | 333° |
| 2026-05-05 16:56 | 51.94340 | 21.16096 | 3836 ft | 221 kts | 330° |
| 2026-05-05 16:56 | 51.95658 | 21.15002 | 3760 ft | 213 kts | 327° |
| 2026-05-05 16:57 | 51.96967 | 21.13843 | 3354 ft | 213 kts | 327° |
| 2026-05-05 16:57 | 51.98257 | 21.12695 | 3068 ft | 210 kts | 328° |
| 2026-05-05 16:57 | 51.99511 | 21.11577 | 2958 ft | 196 kts | 327° |
| 2026-05-05 16:57 | 52.00638 | 21.10573 | 2953 ft | 174 kts | 326° |
| 2026-05-05 16:58 | 52.01649 | 21.09675 | 2839 ft | 169 kts | 329° |
| 2026-05-05 16:58 | 52.02785 | 21.08844 | 2842 ft | 176 kts | 335° |
| 2026-05-05 16:58 | 52.03866 | 21.08142 | 2659 ft | 161 kts | 328° |
| 2026-05-05 16:58 | 52.04861 | 21.07237 | 2219 ft | 184 kts | 327° |
| 2026-05-05 16:59 | 52.06065 | 21.06157 | 2021 ft | 192 kts | 327° |
| 2026-05-05 16:59 | 52.07126 | 21.05170 | 1877 ft | 169 kts | 323° |
| 2026-05-05 16:59 | 52.08153 | 21.04135 | 1682 ft | 183 kts | 325° |
| 2026-05-05 16:59 | 52.09281 | 21.02969 | 1522 ft | 200 kts | 325° |
| 2026-05-05 17:00 | 52.10504 | 21.01955 | 1326 ft | 186 kts | 332° |
| 2026-05-05 17:00 | 52.11630 | 21.01069 | 962 ft | 189 kts | 330° |
| 2026-05-05 17:00 | 52.12834 | 21.00079 | 764 ft | 195 kts | 329° |
| 2026-05-05 17:00 | 52.13983 | 20.99027 | 594 ft | 171 kts | 328° |
| 2026-05-05 17:01 | 52.14912 | 20.98182 | 375 ft | 139 kts | 328° |
| 2026-05-05 17:01 | 52.15799 | 20.97375 | 383 ft | 155 kts | 327° |
| 2026-05-05 17:01 | 52.16629 | 20.96623 | 364 ft | 107 kts | 333° |
| 2026-05-05 17:01 | 52.17045 | 20.96323 | 361 ft | 21 kts | 332° |
| 2026-05-05 17:02 | 52.17060 | 20.96310 | 364 ft | 0 kts | 332° |
| 2026-05-05 17:02 | 52.17136 | 20.96266 | 364 ft | 12 kts | 348° |
| 2026-05-05 17:02 | 52.17199 | 20.96254 | 367 ft | 6 kts | 354° |
| 2026-05-05 17:02 | 52.17273 | 20.96246 | 362 ft | 14 kts | 359° |
| 2026-05-05 17:03 | 52.17345 | 20.96257 | 363 ft | 7 kts | 18° |
| 2026-05-05 17:03 | 52.17374 | 20.96281 | 365 ft | 3 kts | 32° |
| 2026-05-05 17:03 | 52.17495 | 20.96305 | 363 ft | 14 kts | 336° |
| 2026-05-05 17:03 | 52.17565 | 20.96247 | 363 ft | 11 kts | 332° |
| 2026-05-05 17:04 | 52.17732 | 20.96097 | 365 ft | 19 kts | 334° |
| 2026-05-05 17:04 | 52.17845 | 20.96000 | 368 ft | 17 kts | 332° |
| 2026-05-05 17:04 | 52.17913 | 20.95941 | 365 ft | 8 kts | 334° |
| 2026-05-05 17:04 | 52.17949 | 20.95954 | 366 ft | 6 kts | 36° |
| 2026-05-05 17:05 | 52.17967 | 20.95994 | 363 ft | 3 kts | 61° |
| 2026-05-05 17:05 | 52.17980 | 20.96043 | 363 ft | 7 kts | 70° |
| 2026-05-05 17:05 | 52.17988 | 20.96123 | 366 ft | 7 kts | 96° |
| 2026-05-05 17:05 | 52.17993 | 20.96190 | 367 ft | 5 kts | 79° |
| 2026-05-05 17:06 | 52.17997 | 20.96252 | 365 ft | 5 kts | 68° |
| 2026-05-05 17:06 | 52.18019 | 20.96256 | 366 ft | 3 kts | 337° |
| 2026-05-05 17:06 | 52.18031 | 20.96233 | 366 ft | 2 kts | 300° |
| 2026-05-05 17:06 | 52.18036 | 20.96218 | 363 ft | 1 kts | 297° |
| 2026-05-05 17:07 | 52.18038 | 20.96213 | 363 ft | 0 kts | 297° |
| 2026-05-05 17:08 | 52.18037 | 20.96213 | 363 ft | 0 kts | 297° |
| 2026-05-05 17:10 | 52.18037 | 20.96214 | 363 ft | 0 kts | 297° |